Time,TemperatureF,DewpointF,PressureIn,WindDirection,WindDirectionDegrees,WindSpeedMPH,WindSpeedGustMPH,Humidity,HourlyPrecipIn,Conditions,Clouds,dailyrainin,SoftwareType,DateUTC
2013-04-09 00:00:00,44.7,40.2,30.32,SSW,205,0.0,1.0,84,0.00,,---,0.01,VWS V14.01,2013-04-09 07:00:00,
2013-04-09 00:05:00,44.6,40.1,30.32,West,269,0.0,1.0,84,0.00,,---,0.00,VWS V14.01,2013-04-09 07:05:00,
2013-04-09 00:10:00,44.5,40.0,30.32,WNW,283,0.0,1.0,84,0.00,,---,0.00,VWS V14.01,2013-04-09 07:10:00,
2013-04-09 00:15:00,44.4,39.9,30.32,WNW,284,0.0,1.0,84,0.00,,---,0.00,VWS V14.01,2013-04-09 07:15:00,
2013-04-09 00:20:00,44.3,39.8,30.32,West,281,0.0,1.0,84,0.00,,---,0.00,VWS V14.01,2013-04-09 07:20:00,
2013-04-09 00:25:00,44.1,39.9,30.32,West,281,0.0,1.0,85,0.00,,---,0.00,VWS V14.01,2013-04-09 07:25:00,
2013-04-09 00:30:00,43.9,39.7,30.32,SW,222,0.0,1.0,85,0.00,,---,0.00,VWS V14.01,2013-04-09 07:30:00,
2013-04-09 00:35:00,43.9,39.7,30.32,WSW,253,0.0,1.0,85,0.00,,---,0.00,VWS V14.01,2013-04-09 07:35:00,
2013-04-09 00:40:00,43.8,39.6,30.32,WSW,244,0.0,1.0,85,0.00,,---,0.00,VWS V14.01,2013-04-09 07:40:00,
2013-04-09 00:45:00,43.8,39.6,30.32,West,263,0.0,1.0,85,0.00,,---,0.00,VWS V14.01,2013-04-09 07:45:00,
2013-04-09 00:50:00,43.7,39.5,30.33,WSW,252,0.0,1.0,85,0.00,,---,0.00,VWS V14.01,2013-04-09 07:50:00,
2013-04-09 00:55:00,43.6,39.4,30.32,WSW,248,0.0,1.0,85,0.00,,---,0.00,VWS V14.01,2013-04-09 07:55:00,
2013-04-09 01:00:00,43.5,39.3,30.33,WSW,248,0.0,1.0,85,0.00,,---,0.00,VWS V14.01,2013-04-09 08:00:00,
2013-04-09 01:05:00,43.4,39.2,30.33,West,269,0.0,1.0,85,0.00,,---,0.00,VWS V14.01,2013-04-09 08:05:00,
2013-04-09 01:10:00,43.3,39.1,30.33,West,277,0.0,1.0,85,0.00,,---,0.00,VWS V14.01,2013-04-09 08:10:00,
2013-04-09 01:15:00,43.2,39.3,30.33,West,260,0.0,1.0,86,0.00,,---,0.00,VWS V14.01,2013-04-09 08:15:00,
2013-04-09 01:20:00,43.2,39.3,30.33,West,264,0.0,1.0,86,0.00,,---,0.00,VWS V14.01,2013-04-09 08:20:00,
2013-04-09 01:25:00,43.1,39.2,30.33,West,269,0.0,1.0,86,0.00,,---,0.00,VWS V14.01,2013-04-09 08:25:00,
2013-04-09 01:30:00,43.1,39.2,30.33,West,273,0.0,1.0,86,0.00,,---,0.00,VWS V14.01,2013-04-09 08:30:00,
2013-04-09 01:35:00,43.0,39.1,30.33,West,271,0.0,1.0,86,0.00,,---,0.00,VWS V14.01,2013-04-09 08:35:00,
2013-04-09 01:40:00,42.9,39.0,30.33,WSW,252,0.0,1.0,86,0.00,,---,0.00,VWS V14.01,2013-04-09 08:40:00,
2013-04-09 01:45:00,42.9,39.0,30.33,WSW,248,0.0,1.0,86,0.00,,---,0.00,VWS V14.01,2013-04-09 08:45:00,
2013-04-09 01:50:00,42.8,38.9,30.33,WSW,257,0.0,1.0,86,0.00,,---,0.00,VWS V14.01,2013-04-09 08:50:00,
2013-04-09 01:55:00,42.7,38.8,30.33,West,260,0.0,1.0,86,0.00,,---,0.00,VWS V14.01,2013-04-09 08:55:00,
2013-04-09 02:00:00,42.7,38.8,30.33,West,260,0.0,1.0,86,0.00,,---,0.00,VWS V14.01,2013-04-09 09:00:00,
2013-04-09 02:05:00,42.6,39.0,30.33,WSW,248,0.0,1.0,87,0.00,,---,0.00,VWS V14.01,2013-04-09 09:05:00,
2013-04-09 02:10:00,42.4,38.8,30.33,WSW,257,0.0,1.0,87,0.00,,---,0.00,VWS V14.01,2013-04-09 09:10:00,
2013-04-09 02:15:00,42.3,38.7,30.33,WSW,257,0.0,1.0,87,0.00,,---,0.00,VWS V14.01,2013-04-09 09:15:00,
2013-04-09 02:21:00,42.2,38.6,30.33,WSW,257,0.0,1.0,87,0.00,,---,0.00,VWS V14.01,2013-04-09 09:21:00,
2013-04-09 02:26:00,42.1,38.5,30.33,WSW,257,0.0,1.0,87,0.00,,---,0.00,VWS V14.01,2013-04-09 09:26:00,
2013-04-09 02:31:00,41.9,38.3,30.33,WSW,257,0.0,1.0,87,0.00,,---,0.00,VWS V14.01,2013-04-09 09:31:00,
2013-04-09 02:36:00,41.7,38.1,30.33,WSW,257,0.0,0.0,87,0.00,,---,0.00,VWS V14.01,2013-04-09 09:36:00,
2013-04-09 02:41:00,41.5,38.2,30.33,WSW,257,0.0,0.0,88,0.00,,---,0.00,VWS V14.01,2013-04-09 09:41:00,
2013-04-09 02:46:00,41.2,37.9,30.33,WSW,257,0.0,0.0,88,0.00,,---,0.00,VWS V14.01,2013-04-09 09:46:00,
2013-04-09 02:51:00,41.1,37.8,30.33,WSW,257,0.0,0.0,88,0.00,,---,0.00,VWS V14.01,2013-04-09 09:51:00,
2013-04-09 02:56:00,40.8,37.5,30.33,WSW,257,0.0,0.0,88,0.00,,---,0.00,VWS V14.01,2013-04-09 09:56:00,
2013-04-09 03:01:00,40.6,37.3,30.33,WSW,257,0.0,0.0,88,0.00,,---,0.00,VWS V14.01,2013-04-09 10:01:00,
2013-04-09 03:06:00,40.6,37.3,30.33,WSW,257,0.0,0.0,88,0.00,,---,0.00,VWS V14.01,2013-04-09 10:06:00,
2013-04-09 03:11:00,40.4,37.1,30.33,WSW,257,0.0,0.0,88,0.00,,---,0.00,VWS V14.01,2013-04-09 10:11:00,
2013-04-09 03:16:00,40.3,37.0,30.33,WSW,257,0.0,0.0,88,0.00,,---,0.00,VWS V14.01,2013-04-09 10:16:00,
2013-04-09 03:21:00,40.3,37.0,30.33,WSW,257,0.0,0.0,88,0.00,,---,0.00,VWS V14.01,2013-04-09 10:21:00,
2013-04-09 03:26:00,40.2,36.9,30.33,WSW,258,0.0,0.0,88,0.00,,---,0.00,VWS V14.01,2013-04-09 10:26:00,
2013-04-09 03:31:00,40.4,36.8,30.33,WSW,257,0.0,0.0,87,0.00,,---,0.00,VWS V14.01,2013-04-09 10:31:00,
2013-04-09 03:36:00,40.5,37.2,30.33,WSW,257,0.0,0.0,88,0.00,,---,0.00,VWS V14.01,2013-04-09 10:36:00,
2013-04-09 03:41:00,40.7,37.1,30.33,WSW,257,0.0,0.0,87,0.00,,---,0.00,VWS V14.01,2013-04-09 10:41:00,
2013-04-09 03:46:00,40.9,37.6,30.33,WSW,257,0.0,0.0,88,0.00,,---,0.00,VWS V14.01,2013-04-09 10:46:00,
2013-04-09 03:51:00,41.1,37.8,30.33,WSW,258,0.0,0.0,88,0.00,,---,0.00,VWS V14.01,2013-04-09 10:51:00,
2013-04-09 03:57:00,41.1,37.8,30.33,WSW,258,0.0,0.0,88,0.00,,---,0.00,VWS V14.01,2013-04-09 10:57:00,
2013-04-09 04:02:00,41.3,38.0,30.33,WSW,257,0.0,0.0,88,0.00,,---,0.00,VWS V14.01,2013-04-09 11:02:00,
2013-04-09 04:08:00,41.4,38.1,30.34,WSW,257,0.0,0.0,88,0.00,,---,0.00,VWS V14.01,2013-04-09 11:08:00,
2013-04-09 04:13:00,41.5,38.2,30.34,WSW,257,0.0,0.0,88,0.00,,---,0.00,VWS V14.01,2013-04-09 11:13:00,
2013-04-09 04:18:00,41.6,38.3,30.34,WSW,257,0.0,0.0,88,0.00,,---,0.00,VWS V14.01,2013-04-09 11:18:00,
2013-04-09 04:24:00,41.6,38.3,30.34,WSW,257,0.0,0.0,88,0.00,,---,0.00,VWS V14.01,2013-04-09 11:24:00,
2013-04-09 04:29:00,41.7,38.4,30.34,WSW,257,0.0,0.0,88,0.00,,---,0.00,VWS V14.01,2013-04-09 11:29:00,
2013-04-09 04:34:00,41.8,38.5,30.34,WSW,257,0.0,0.0,88,0.00,,---,0.00,VWS V14.01,2013-04-09 11:34:00,
2013-04-09 04:39:00,41.9,38.6,30.34,WSW,257,0.0,0.0,88,0.00,,---,0.00,VWS V14.01,2013-04-09 11:39:00,
2013-04-09 04:44:00,41.9,38.6,30.35,WSW,258,0.0,0.0,88,0.00,,---,0.00,VWS V14.01,2013-04-09 11:44:00,
2013-04-09 04:49:00,41.9,38.6,30.35,WSW,257,0.0,0.0,88,0.00,,---,0.00,VWS V14.01,2013-04-09 11:49:00,
2013-04-09 04:54:00,41.9,38.6,30.35,WSW,257,0.0,0.0,88,0.00,,---,0.00,VWS V14.01,2013-04-09 11:54:00,
2013-04-09 04:59:00,41.9,38.6,30.35,WSW,257,0.0,0.0,88,0.00,,---,0.00,VWS V14.01,2013-04-09 11:59:00,
2013-04-09 05:04:00,41.8,38.5,30.34,WSW,257,0.0,0.0,88,0.00,,---,0.00,VWS V14.01,2013-04-09 12:04:00,
2013-04-09 05:09:00,41.7,38.4,30.35,WSW,257,0.0,0.0,88,0.00,,---,0.00,VWS V14.01,2013-04-09 12:09:00,
2013-04-09 05:14:00,41.5,38.5,30.35,WSW,257,0.0,0.0,89,0.00,,---,0.00,VWS V14.01,2013-04-09 12:14:00,
2013-04-09 05:19:00,41.5,38.5,30.35,WSW,257,0.0,0.0,89,0.00,,---,0.00,VWS V14.01,2013-04-09 12:19:00,
2013-04-09 05:24:00,41.3,38.3,30.35,WSW,257,0.0,0.0,89,0.00,,---,0.00,VWS V14.01,2013-04-09 12:24:00,
2013-04-09 05:29:00,41.2,37.9,30.35,WSW,257,0.0,0.0,88,0.00,,---,0.00,VWS V14.01,2013-04-09 12:29:00,
2013-04-09 05:34:00,41.2,37.9,30.35,WSW,257,0.0,0.0,88,0.00,,---,0.00,VWS V14.01,2013-04-09 12:34:00,
2013-04-09 05:39:00,41.1,37.8,30.35,WSW,257,0.0,0.0,88,0.00,,---,0.00,VWS V14.01,2013-04-09 12:39:00,
2013-04-09 05:44:00,40.9,37.9,30.35,WSW,257,0.0,0.0,89,0.00,,---,0.00,VWS V14.01,2013-04-09 12:44:00,
2013-04-09 05:49:00,40.9,37.6,30.35,WSW,257,0.0,0.0,88,0.00,,---,0.00,VWS V14.01,2013-04-09 12:49:00,
2013-04-09 05:54:00,40.8,37.5,30.35,WSW,257,0.0,0.0,88,0.00,,---,0.00,VWS V14.01,2013-04-09 12:54:00,
2013-04-09 05:59:00,40.9,37.3,30.35,WSW,257,0.0,0.0,87,0.00,,---,0.00,VWS V14.01,2013-04-09 12:59:00,
2013-04-09 06:04:00,40.9,37.3,30.35,West,259,0.0,0.0,87,0.00,,---,0.00,VWS V14.01,2013-04-09 13:04:00,
2013-04-09 06:09:00,41.0,37.4,30.36,WSW,257,0.0,0.0,87,0.00,,---,0.00,VWS V14.01,2013-04-09 13:09:00,
2013-04-09 06:14:00,41.1,37.5,30.36,WSW,257,0.0,0.0,87,0.00,,---,0.00,VWS V14.01,2013-04-09 13:14:00,
2013-04-09 06:20:00,41.1,37.8,30.36,WSW,257,0.0,0.0,88,0.00,,---,0.00,VWS V14.01,2013-04-09 13:20:00,
2013-04-09 06:25:00,41.0,37.7,30.36,WSW,257,0.0,0.0,88,0.00,,---,0.00,VWS V14.01,2013-04-09 13:25:00,
2013-04-09 06:30:00,41.0,37.7,30.36,WSW,257,0.0,0.0,88,0.00,,---,0.00,VWS V14.01,2013-04-09 13:30:00,
2013-04-09 06:35:00,40.9,37.6,30.36,WSW,257,0.0,0.0,88,0.00,,---,0.00,VWS V14.01,2013-04-09 13:35:00,
2013-04-09 06:40:00,41.0,37.4,30.35,WSW,257,0.0,0.0,87,0.00,,---,0.00,VWS V14.01,2013-04-09 13:40:00,
2013-04-09 06:45:00,41.1,37.5,30.35,WSW,257,0.0,0.0,87,0.00,,---,0.00,VWS V14.01,2013-04-09 13:45:00,
2013-04-09 06:50:00,41.2,37.6,30.35,WSW,257,0.0,0.0,87,0.00,,---,0.00,VWS V14.01,2013-04-09 13:50:00,
2013-04-09 06:55:00,41.3,37.7,30.35,WSW,257,0.0,0.0,87,0.00,,---,0.00,VWS V14.01,2013-04-09 13:55:00,
2013-04-09 07:00:00,41.3,37.7,30.36,WSW,257,0.0,0.0,87,0.00,,---,0.00,VWS V14.01,2013-04-09 14:00:00,
2013-04-09 07:05:00,41.4,37.8,30.36,WSW,257,0.0,0.0,87,0.00,,---,0.00,VWS V14.01,2013-04-09 14:05:00,
2013-04-09 07:10:00,41.6,38.0,30.36,WSW,257,0.0,0.0,87,0.00,,---,0.00,VWS V14.01,2013-04-09 14:10:00,
2013-04-09 07:15:00,41.7,38.4,30.36,WSW,257,0.0,0.0,88,0.00,,---,0.00,VWS V14.01,2013-04-09 14:15:00,
2013-04-09 07:20:00,41.7,38.4,30.35,WSW,257,0.0,0.0,88,0.00,,---,0.00,VWS V14.01,2013-04-09 14:20:00,
2013-04-09 07:25:00,41.8,38.5,30.35,WSW,257,0.0,0.0,88,0.00,,---,0.00,VWS V14.01,2013-04-09 14:25:00,
2013-04-09 07:30:00,41.9,38.9,30.35,WSW,258,0.0,1.0,89,0.00,,---,0.00,VWS V14.01,2013-04-09 14:30:00,
2013-04-09 07:35:00,42.0,39.0,30.35,West,259,0.0,0.0,89,0.00,,---,0.00,VWS V14.01,2013-04-09 14:35:00,
2013-04-09 07:40:00,42.1,39.1,30.36,WSW,257,0.0,0.0,89,0.00,,---,0.00,VWS V14.01,2013-04-09 14:40:00,
2013-04-09 07:45:00,42.2,39.2,30.36,WSW,257,0.0,0.0,89,0.00,,---,0.00,VWS V14.01,2013-04-09 14:45:00,
2013-04-09 07:50:00,42.3,39.3,30.36,WSW,257,0.0,0.0,89,0.00,,---,0.00,VWS V14.01,2013-04-09 14:50:00,
2013-04-09 07:55:00,42.5,39.5,30.36,WSW,257,0.0,0.0,89,0.00,,---,0.00,VWS V14.01,2013-04-09 14:55:00,
2013-04-09 08:00:00,42.7,39.7,30.36,WSW,257,0.0,0.0,89,0.00,,---,0.00,VWS V14.01,2013-04-09 15:00:00,
2013-04-09 08:05:00,42.9,39.9,30.36,WSW,257,0.0,0.0,89,0.00,,---,0.00,VWS V14.01,2013-04-09 15:05:00,
2013-04-09 08:10:00,43.0,40.0,30.37,WSW,257,0.0,0.0,89,0.00,,---,0.00,VWS V14.01,2013-04-09 15:10:00,
2013-04-09 08:15:00,43.1,40.1,30.37,West,259,0.0,0.0,89,0.00,,---,0.00,VWS V14.01,2013-04-09 15:15:00,
2013-04-09 08:20:00,43.1,39.8,30.36,WSW,257,0.0,1.0,88,0.00,,---,0.00,VWS V14.01,2013-04-09 15:20:00,
2013-04-09 08:25:00,43.3,40.3,30.36,WSW,238,0.0,1.0,89,0.00,,---,0.00,VWS V14.01,2013-04-09 15:25:00,
2013-04-09 08:30:00,43.4,40.1,30.36,WSW,238,0.0,1.0,88,0.00,,---,0.00,VWS V14.01,2013-04-09 15:30:00,
2013-04-09 08:35:00,43.6,40.3,30.37,WSW,238,0.0,1.0,88,0.00,,---,0.00,VWS V14.01,2013-04-09 15:35:00,
2013-04-09 08:40:00,43.9,40.6,30.37,WSW,238,0.0,1.0,88,0.00,,---,0.00,VWS V14.01,2013-04-09 15:40:00,
2013-04-09 08:45:00,44.3,41.0,30.37,WSW,238,0.0,1.0,88,0.00,,---,0.00,VWS V14.01,2013-04-09 15:45:00,
2013-04-09 08:50:00,44.4,41.1,30.36,WSW,238,0.0,1.0,88,0.00,,---,0.00,VWS V14.01,2013-04-09 15:50:00,
2013-04-09 08:55:00,44.5,41.2,30.37,WSW,239,0.0,1.0,88,0.00,,---,0.00,VWS V14.01,2013-04-09 15:55:00,
2013-04-09 09:00:00,44.7,41.4,30.37,West,270,0.0,1.0,88,0.00,,---,0.00,VWS V14.01,2013-04-09 16:00:00,
2013-04-09 09:05:00,44.7,41.1,30.37,WNW,284,0.0,0.0,87,0.00,,---,0.00,VWS V14.01,2013-04-09 16:05:00,
2013-04-09 09:10:00,44.9,41.6,30.37,WNW,284,0.0,0.0,88,0.00,,---,0.00,VWS V14.01,2013-04-09 16:10:00,
2013-04-09 09:15:00,45.0,41.4,30.37,WNW,284,0.0,0.0,87,0.00,,---,0.00,VWS V14.01,2013-04-09 16:15:00,
2013-04-09 09:20:00,45.2,41.6,30.37,WNW,284,0.0,0.0,87,0.00,,---,0.00,VWS V14.01,2013-04-09 16:20:00,
2013-04-09 09:25:00,45.4,41.5,30.38,NW,310,0.0,1.0,86,0.00,,---,0.00,VWS V14.01,2013-04-09 16:25:00,
2013-04-09 09:30:00,45.6,41.4,30.38,NNW,338,1.0,1.0,85,0.00,,---,0.00,VWS V14.01,2013-04-09 16:30:00,
2013-04-09 09:35:00,45.7,41.5,30.38,NNW,338,0.0,1.0,85,0.00,,---,0.00,VWS V14.01,2013-04-09 16:35:00,
2013-04-09 09:40:00,45.9,41.7,30.38,NNW,338,0.0,1.0,85,0.00,,---,0.00,VWS V14.01,2013-04-09 16:40:00,
2013-04-09 09:45:00,46.1,41.8,30.38,NW,320,0.0,1.0,85,0.00,,---,0.00,VWS V14.01,2013-04-09 16:45:00,
2013-04-09 09:50:00,46.7,42.1,30.38,NW,315,0.0,1.0,84,0.00,,---,0.00,VWS V14.01,2013-04-09 16:50:00,
2013-04-09 09:55:00,47.0,42.1,30.38,WNW,297,0.0,1.0,83,0.00,,---,0.00,VWS V14.01,2013-04-09 16:55:00,
2013-04-09 10:00:00,47.3,42.4,30.38,SW,222,0.0,1.0,83,0.00,,---,0.00,VWS V14.01,2013-04-09 17:00:00,
2013-04-09 10:05:00,47.6,42.7,30.39,WSW,253,0.0,1.0,83,0.00,,---,0.00,VWS V14.01,2013-04-09 17:05:00,
2013-04-09 10:10:00,47.8,42.6,30.38,WSW,253,0.0,1.0,82,0.00,,---,0.00,VWS V14.01,2013-04-09 17:10:00,
2013-04-09 10:15:00,48.3,43.1,30.38,WSW,255,0.0,1.0,82,0.00,,---,0.00,VWS V14.01,2013-04-09 17:15:00,
2013-04-09 10:20:00,48.6,42.7,30.39,SW,214,0.0,1.0,80,0.00,,---,0.00,VWS V14.01,2013-04-09 17:20:00,
2013-04-09 10:25:00,48.9,43.3,30.39,SW,218,0.0,1.0,81,0.00,,---,0.00,VWS V14.01,2013-04-09 17:25:00,
2013-04-09 10:30:00,48.9,43.0,30.39,ENE,62,0.0,1.0,80,0.00,,---,0.00,VWS V14.01,2013-04-09 17:30:00,
2013-04-09 10:35:00,48.8,42.9,30.39,ENE,62,0.0,0.0,80,0.00,,---,0.00,VWS V14.01,2013-04-09 17:35:00,
2013-04-09 10:40:00,48.8,42.9,30.39,ENE,72,0.0,2.0,80,0.00,,---,0.00,VWS V14.01,2013-04-09 17:40:00,
2013-04-09 10:45:00,48.8,42.6,30.39,NNW,327,0.0,3.0,79,0.00,,---,0.00,VWS V14.01,2013-04-09 17:45:00,
2013-04-09 10:50:00,49.1,43.2,30.38,NNW,342,0.0,3.0,80,0.00,,---,0.00,VWS V14.01,2013-04-09 17:50:00,
2013-04-09 10:55:00,49.6,43.7,30.38,NE,45,0.0,3.0,80,0.00,,---,0.00,VWS V14.01,2013-04-09 17:55:00,
2013-04-09 11:00:00,50.1,43.2,30.38,NE,50,0.0,3.0,77,0.00,,---,0.00,VWS V14.01,2013-04-09 18:00:00,
2013-04-09 11:05:00,50.1,43.2,30.38,ENE,70,0.0,1.0,77,0.00,,---,0.00,VWS V14.01,2013-04-09 18:05:00,
2013-04-09 11:10:00,50.2,42.9,30.38,ENE,70,0.0,1.0,76,0.00,,---,0.00,VWS V14.01,2013-04-09 18:10:00,
2013-04-09 11:15:00,50.5,43.2,30.39,SW,218,0.0,3.0,76,0.00,,---,0.00,VWS V14.01,2013-04-09 18:15:00,
2013-04-09 11:20:00,51.0,43.4,30.39,WSW,257,0.0,3.0,75,0.00,,---,0.00,VWS V14.01,2013-04-09 18:20:00,
2013-04-09 11:25:00,51.1,43.5,30.39,SSE,165,0.0,3.0,75,0.00,,---,0.00,VWS V14.01,2013-04-09 18:25:00,
2013-04-09 11:30:00,51.5,43.8,30.39,SSE,165,0.0,3.0,75,0.00,,---,0.00,VWS V14.01,2013-04-09 18:30:00,
2013-04-09 11:35:00,51.9,43.2,30.39,SSW,212,0.0,2.0,72,0.00,,---,0.00,VWS V14.01,2013-04-09 18:35:00,
2013-04-09 11:40:00,51.9,42.8,30.39,SSW,208,0.0,2.0,71,0.00,,---,0.00,VWS V14.01,2013-04-09 18:40:00,
2013-04-09 11:46:00,51.8,44.1,30.38,SSE,158,0.0,2.0,75,0.00,,---,0.00,VWS V14.01,2013-04-09 18:46:00,
2013-04-09 11:51:00,51.7,44.4,30.38,ESE,114,0.0,2.0,76,0.00,,---,0.00,VWS V14.01,2013-04-09 18:51:00,
2013-04-09 11:56:00,51.8,44.5,30.38,NE,50,1.0,2.0,76,0.00,,---,0.00,VWS V14.01,2013-04-09 18:56:00,
2013-04-09 12:01:00,51.5,44.2,30.38,East,79,0.0,2.0,76,0.00,,---,0.00,VWS V14.01,2013-04-09 19:01:00,
2013-04-09 12:06:00,51.4,43.8,30.39,NE,43,0.0,2.0,75,0.00,,---,0.00,VWS V14.01,2013-04-09 19:06:00,
2013-04-09 12:11:00,51.3,44.0,30.38,NNE,32,0.0,2.0,76,0.00,,---,0.00,VWS V14.01,2013-04-09 19:11:00,
2013-04-09 12:16:00,51.3,44.0,30.38,NE,41,0.0,2.0,76,0.00,,---,0.00,VWS V14.01,2013-04-09 19:16:00,
2013-04-09 12:21:00,51.5,44.5,30.38,NE,41,0.0,2.0,77,0.00,,---,0.00,VWS V14.01,2013-04-09 19:21:00,
2013-04-09 12:26:00,51.9,44.2,30.37,ESE,115,0.0,2.0,75,0.00,,---,0.00,VWS V14.01,2013-04-09 19:26:00,
2013-04-09 12:32:00,52.4,44.7,30.37,ENE,70,0.0,0.0,75,0.00,,---,0.00,VWS V14.01,2013-04-09 19:32:00,
2013-04-09 12:37:00,53.0,45.0,30.37,ENE,70,0.0,1.0,74,0.00,,---,0.00,VWS V14.01,2013-04-09 19:37:00,
2013-04-09 12:42:00,53.2,45.1,30.37,ENE,70,0.0,1.0,74,0.00,,---,0.00,VWS V14.01,2013-04-09 19:42:00,
2013-04-09 12:47:00,53.3,44.5,30.37,East,81,0.0,3.0,72,0.00,,---,0.00,VWS V14.01,2013-04-09 19:47:00,
2013-04-09 12:52:00,53.1,44.7,30.37,East,80,0.0,3.0,73,0.00,,---,0.00,VWS V14.01,2013-04-09 19:52:00,
2013-04-09 12:57:00,53.2,44.4,30.37,East,80,0.0,3.0,72,0.00,,---,0.00,VWS V14.01,2013-04-09 19:57:00,
2013-04-09 13:02:00,53.4,44.2,30.36,SW,229,1.0,1.0,71,0.00,,---,0.00,VWS V14.01,2013-04-09 20:02:00,
2013-04-09 13:07:00,53.4,44.2,30.37,SW,231,0.0,2.0,71,0.00,,---,0.00,VWS V14.01,2013-04-09 20:07:00,
2013-04-09 13:12:00,53.5,44.3,30.37,WNW,300,0.0,2.0,71,0.00,,---,0.00,VWS V14.01,2013-04-09 20:12:00,
2013-04-09 13:17:00,53.7,44.9,30.37,WNW,300,0.0,2.0,72,0.00,,---,0.00,VWS V14.01,2013-04-09 20:17:00,
2013-04-09 13:22:00,53.7,44.9,30.36,ENE,72,0.0,2.0,72,0.00,,---,0.00,VWS V14.01,2013-04-09 20:22:00,
2013-04-09 13:27:00,53.6,44.8,30.36,SSW,208,0.0,2.0,72,0.00,,---,0.00,VWS V14.01,2013-04-09 20:27:00,
2013-04-09 13:32:00,53.6,44.8,30.36,SSW,208,0.0,0.0,72,0.00,,---,0.00,VWS V14.01,2013-04-09 20:32:00,
2013-04-09 13:37:00,53.5,44.3,30.36,SSW,207,0.0,1.0,71,0.00,,---,0.00,VWS V14.01,2013-04-09 20:37:00,
2013-04-09 13:42:00,53.6,44.8,30.36,SSW,208,0.0,1.0,72,0.00,,---,0.00,VWS V14.01,2013-04-09 20:42:00,
2013-04-09 13:47:00,53.8,45.0,30.36,ESE,105,0.0,1.0,72,0.00,,---,0.00,VWS V14.01,2013-04-09 20:47:00,
2013-04-09 13:52:00,54.1,45.3,30.36,NE,55,2.0,2.0,72,0.00,,---,0.00,VWS V14.01,2013-04-09 20:52:00,
2013-04-09 13:57:00,54.1,45.3,30.36,SSW,203,0.0,2.0,72,0.00,,---,0.00,VWS V14.01,2013-04-09 20:57:00,
2013-04-09 14:02:00,54.5,45.7,30.36,SW,227,0.0,0.0,72,0.00,,---,0.00,VWS V14.01,2013-04-09 21:02:00,
2013-04-09 14:07:00,54.8,45.6,30.35,SSE,148,0.0,0.0,71,0.00,,---,0.00,VWS V14.01,2013-04-09 21:07:00,
2013-04-09 14:12:00,55.2,46.0,30.35,SW,225,0.0,0.0,71,0.00,,---,0.00,VWS V14.01,2013-04-09 21:12:00,
2013-04-09 14:17:00,55.4,45.4,30.35,NNW,338,1.0,2.0,69,0.00,,---,0.00,VWS V14.01,2013-04-09 21:17:00,
2013-04-09 14:22:00,55.1,45.5,30.35,NNW,345,0.0,4.0,70,0.00,,---,0.00,VWS V14.01,2013-04-09 21:22:00,
2013-04-09 14:27:00,55.0,45.4,30.35,NNE,30,1.0,4.0,70,0.00,,---,0.00,VWS V14.01,2013-04-09 21:27:00,
2013-04-09 14:32:00,55.3,45.3,30.36,SW,226,0.0,2.0,69,0.00,,---,0.00,VWS V14.01,2013-04-09 21:32:00,
2013-04-09 14:37:00,55.6,45.6,30.36,NNW,338,1.0,3.0,69,0.00,,---,0.00,VWS V14.01,2013-04-09 21:37:00,
2013-04-09 14:42:00,55.5,45.5,30.35,NNE,27,0.0,4.0,69,0.00,,---,0.00,VWS V14.01,2013-04-09 21:42:00,
2013-04-09 14:48:00,55.4,45.0,30.35,NNW,329,1.0,4.0,68,0.00,,---,0.00,VWS V14.01,2013-04-09 21:48:00,
2013-04-09 14:53:00,55.5,45.1,30.35,ENE,65,0.0,4.0,68,0.00,,---,0.00,VWS V14.01,2013-04-09 21:53:00,
2013-04-09 14:58:00,55.7,45.3,30.35,ENE,65,0.0,4.0,68,0.00,,---,0.00,VWS V14.01,2013-04-09 21:58:00,
2013-04-09 15:03:00,56.1,45.3,30.35,NW,322,0.0,1.0,67,0.00,,---,0.00,VWS V14.01,2013-04-09 22:03:00,
2013-04-09 15:08:00,56.3,45.1,30.35,West,259,0.0,2.0,66,0.00,,---,0.00,VWS V14.01,2013-04-09 22:08:00,
2013-04-09 15:13:00,56.8,45.6,30.35,SW,222,0.0,3.0,66,0.00,,---,0.00,VWS V14.01,2013-04-09 22:13:00,
2013-04-09 15:18:00,56.8,44.3,30.35,NW,318,0.0,3.0,63,0.00,,---,0.00,VWS V14.01,2013-04-09 22:18:00,
2013-04-09 15:23:00,56.8,45.6,30.35,NNE,16,0.0,4.0,66,0.00,,---,0.00,VWS V14.01,2013-04-09 22:23:00,
2013-04-09 15:28:00,57.2,46.0,30.34,NNW,337,0.0,4.0,66,0.00,,---,0.00,VWS V14.01,2013-04-09 22:28:00,
2013-04-09 15:33:00,57.2,45.2,30.35,West,271,1.0,1.0,64,0.00,,---,0.00,VWS V14.01,2013-04-09 22:33:00,
2013-04-09 15:38:00,57.4,44.9,30.34,West,260,0.0,2.0,63,0.00,,---,0.00,VWS V14.01,2013-04-09 22:38:00,
2013-04-09 15:43:00,57.7,43.9,30.34,WSW,242,0.0,3.0,60,0.00,,---,0.00,VWS V14.01,2013-04-09 22:43:00,
2013-04-09 15:48:00,58.0,43.8,30.34,SW,235,0.0,3.0,59,0.00,,---,0.00,VWS V14.01,2013-04-09 22:48:00,
2013-04-09 15:53:00,58.4,44.1,30.34,SSW,208,0.0,3.0,59,0.00,,---,0.00,VWS V14.01,2013-04-09 22:53:00,
2013-04-09 15:58:00,58.6,43.4,30.34,SSW,203,2.0,3.0,57,0.00,,---,0.00,VWS V14.01,2013-04-09 22:58:00,
2013-04-09 16:03:00,58.7,43.1,30.35,SSW,210,0.0,1.0,56,0.00,,---,0.00,VWS V14.01,2013-04-09 23:03:00,
2013-04-09 16:08:00,58.8,45.0,30.35,WNW,293,0.0,1.0,60,0.00,,---,0.00,VWS V14.01,2013-04-09 23:08:00,
2013-04-09 16:13:00,58.7,45.7,30.34,SSW,195,0.0,2.0,62,0.00,,---,0.00,VWS V14.01,2013-04-09 23:13:00,
2013-04-09 16:18:00,58.4,45.5,30.34,West,267,0.0,2.0,62,0.00,,---,0.00,VWS V14.01,2013-04-09 23:18:00,
2013-04-09 16:23:00,58.4,45.5,30.34,North,360,0.0,2.0,62,0.00,,---,0.00,VWS V14.01,2013-04-09 23:23:00,
2013-04-09 16:28:00,58.4,44.6,30.33,SW,214,0.0,2.0,60,0.00,,---,0.00,VWS V14.01,2013-04-09 23:28:00,
2013-04-09 16:33:00,58.6,43.4,30.33,WNW,285,0.0,2.0,57,0.00,,---,0.00,VWS V14.01,2013-04-09 23:33:00,
2013-04-09 16:38:00,58.6,43.4,30.33,WSW,248,1.0,3.0,57,0.00,,---,0.00,VWS V14.01,2013-04-09 23:38:00,
2013-04-09 16:43:00,58.6,43.0,30.33,SW,229,2.0,3.0,56,0.00,,---,0.00,VWS V14.01,2013-04-09 23:43:00,
2013-04-09 16:48:00,58.5,43.3,30.32,West,277,0.0,4.0,57,0.00,,---,0.00,VWS V14.01,2013-04-09 23:48:00,
2013-04-09 16:53:00,58.8,43.6,30.33,West,263,0.0,4.0,57,0.00,,---,0.00,VWS V14.01,2013-04-09 23:53:00,
2013-04-09 16:58:00,58.8,43.6,30.32,SSW,198,1.0,4.0,57,0.00,,---,0.00,VWS V14.01,2013-04-09 23:58:00,
2013-04-09 17:03:00,58.9,43.2,30.32,SSW,204,0.0,0.0,56,0.00,,---,0.00,VWS V14.01,2013-04-10 00:03:00,
2013-04-09 17:08:00,58.7,42.6,30.32,SSE,167,0.0,3.0,55,0.00,,---,0.00,VWS V14.01,2013-04-10 00:08:00,
2013-04-09 17:13:00,58.6,43.4,30.32,WNW,298,1.0,3.0,57,0.00,,---,0.00,VWS V14.01,2013-04-10 00:13:00,
2013-04-09 17:18:00,59.0,43.3,30.32,West,263,1.0,3.0,56,0.00,,---,0.00,VWS V14.01,2013-04-10 00:18:00,
2013-04-09 17:23:00,59.5,43.3,30.31,SW,236,0.0,3.0,55,0.00,,---,0.00,VWS V14.01,2013-04-10 00:23:00,
2013-04-09 17:28:00,59.8,45.0,30.31,East,96,1.0,3.0,58,0.00,,---,0.00,VWS V14.01,2013-04-10 00:28:00,
2013-04-09 17:33:00,59.6,44.8,30.31,SE,146,1.0,1.0,58,0.00,,---,0.00,VWS V14.01,2013-04-10 00:33:00,
2013-04-09 17:38:00,59.4,43.7,30.32,SW,221,0.0,3.0,56,0.00,,---,0.00,VWS V14.01,2013-04-10 00:38:00,
2013-04-09 17:43:00,59.5,44.7,30.32,SW,215,0.0,3.0,58,0.00,,---,0.00,VWS V14.01,2013-04-10 00:43:00,
2013-04-09 17:48:00,59.6,44.4,30.31,ESE,120,0.0,3.0,57,0.00,,---,0.00,VWS V14.01,2013-04-10 00:48:00,
2013-04-09 17:53:00,59.3,44.5,30.32,East,94,0.0,3.0,58,0.00,,---,0.00,VWS V14.01,2013-04-10 00:53:00,
2013-04-09 17:58:00,58.9,45.5,30.32,NE,53,0.0,3.0,61,0.00,,---,0.00,VWS V14.01,2013-04-10 00:58:00,
2013-04-09 18:03:00,58.5,45.5,30.32,NE,53,0.0,0.0,62,0.00,,---,0.00,VWS V14.01,2013-04-10 01:03:00,
2013-04-09 18:08:00,58.5,46.4,30.32,NE,54,0.0,1.0,64,0.00,,---,0.00,VWS V14.01,2013-04-10 01:08:00,
2013-04-09 18:13:00,58.3,46.2,30.32,NE,54,1.0,1.0,64,0.00,,---,0.00,VWS V14.01,2013-04-10 01:13:00,
2013-04-09 18:18:00,58.0,45.9,30.32,NE,53,0.0,1.0,64,0.00,,---,0.00,VWS V14.01,2013-04-10 01:18:00,
2013-04-09 18:23:00,57.8,46.1,30.32,NE,53,0.0,1.0,65,0.00,,---,0.00,VWS V14.01,2013-04-10 01:23:00,
2013-04-09 18:28:00,57.7,46.0,30.32,NE,46,1.0,1.0,65,0.00,,---,0.00,VWS V14.01,2013-04-10 01:28:00,
2013-04-09 18:33:00,57.5,46.2,30.31,NE,45,0.0,0.0,66,0.00,,---,0.00,VWS V14.01,2013-04-10 01:33:00,
2013-04-09 18:38:00,57.4,46.5,30.31,NE,45,0.0,1.0,67,0.00,,---,0.00,VWS V14.01,2013-04-10 01:38:00,
2013-04-09 18:43:00,57.4,46.9,30.31,NE,45,0.0,1.0,68,0.00,,---,0.00,VWS V14.01,2013-04-10 01:43:00,
2013-04-09 18:48:00,57.3,46.8,30.31,NE,45,0.0,1.0,68,0.00,,---,0.00,VWS V14.01,2013-04-10 01:48:00,
2013-04-09 18:53:00,57.2,46.8,30.30,ENE,65,0.0,1.0,68,0.00,,---,0.00,VWS V14.01,2013-04-10 01:53:00,
2013-04-09 18:58:00,56.9,46.8,30.30,ENE,67,0.0,1.0,69,0.00,,---,0.00,VWS V14.01,2013-04-10 01:58:00,
2013-04-09 19:03:00,56.8,47.1,30.30,ENE,67,0.0,1.0,70,0.00,,---,0.00,VWS V14.01,2013-04-10 02:03:00,
2013-04-09 19:08:00,56.7,46.7,30.30,ENE,67,0.0,1.0,69,0.00,,---,0.00,VWS V14.01,2013-04-10 02:08:00,
2013-04-09 19:13:00,56.6,46.6,30.29,ENE,66,1.0,1.0,69,0.00,,---,0.00,VWS V14.01,2013-04-10 02:13:00,
2013-04-09 19:18:00,56.6,46.6,30.29,ENE,66,0.0,1.0,69,0.00,,---,0.00,VWS V14.01,2013-04-10 02:18:00,
2013-04-09 19:23:00,56.6,46.9,30.29,ENE,67,0.0,1.0,70,0.00,,---,0.00,VWS V14.01,2013-04-10 02:23:00,
2013-04-09 19:28:00,56.5,46.5,30.29,ENE,67,0.0,1.0,69,0.00,,---,0.00,VWS V14.01,2013-04-10 02:28:00,
2013-04-09 19:33:00,56.5,46.8,30.28,ENE,67,0.0,0.0,70,0.00,,---,0.00,VWS V14.01,2013-04-10 02:33:00,
2013-04-09 19:38:00,56.4,46.8,30.29,ENE,66,0.0,1.0,70,0.00,,---,0.00,VWS V14.01,2013-04-10 02:38:00,
2013-04-09 19:43:00,56.3,46.7,30.29,ENE,67,0.0,1.0,70,0.00,,---,0.00,VWS V14.01,2013-04-10 02:43:00,
2013-04-09 19:48:00,56.2,46.6,30.29,ENE,67,0.0,1.0,70,0.00,,---,0.00,VWS V14.01,2013-04-10 02:48:00,
2013-04-09 19:53:00,56.2,46.6,30.29,ENE,67,0.0,1.0,70,0.00,,---,0.00,VWS V14.01,2013-04-10 02:53:00,
2013-04-09 19:58:00,56.1,46.5,30.29,ENE,67,0.0,1.0,70,0.00,,---,0.00,VWS V14.01,2013-04-10 02:58:00,
2013-04-09 20:03:00,56.0,46.4,30.28,ENE,66,0.0,0.0,70,0.00,,---,0.00,VWS V14.01,2013-04-10 03:03:00,
2013-04-09 20:08:00,55.9,46.3,30.28,ENE,67,0.0,0.0,70,0.00,,---,0.00,VWS V14.01,2013-04-10 03:08:00,
2013-04-09 20:13:00,55.8,46.5,30.28,ENE,67,0.0,0.0,71,0.00,,---,0.00,VWS V14.01,2013-04-10 03:13:00,
2013-04-09 20:18:00,55.7,46.5,30.29,ENE,66,0.0,0.0,71,0.00,,---,0.00,VWS V14.01,2013-04-10 03:18:00,
2013-04-09 20:23:00,55.7,46.8,30.29,ENE,67,0.0,0.0,72,0.00,,---,0.00,VWS V14.01,2013-04-10 03:23:00,
2013-04-09 20:28:00,55.6,46.7,30.29,ENE,67,0.0,0.0,72,0.00,,---,0.00,VWS V14.01,2013-04-10 03:28:00,
2013-04-09 20:33:00,55.5,46.6,30.29,ENE,67,0.0,0.0,72,0.00,,---,0.00,VWS V14.01,2013-04-10 03:33:00,
2013-04-09 20:38:00,55.5,46.6,30.29,ENE,67,0.0,0.0,72,0.00,,---,0.00,VWS V14.01,2013-04-10 03:38:00,
2013-04-09 20:43:00,55.5,47.0,30.29,ENE,67,0.0,0.0,73,0.00,,---,0.00,VWS V14.01,2013-04-10 03:43:00,
2013-04-09 20:48:00,55.4,46.9,30.29,ENE,67,0.0,0.0,73,0.00,,---,0.00,VWS V14.01,2013-04-10 03:48:00,
2013-04-09 20:53:00,55.4,46.9,30.29,ENE,67,0.0,0.0,73,0.00,,---,0.00,VWS V14.01,2013-04-10 03:53:00,
2013-04-09 20:58:00,55.4,46.9,30.29,ENE,67,0.0,0.0,73,0.00,,---,0.00,VWS V14.01,2013-04-10 03:58:00,
2013-04-09 21:00:00,55.4,47.3,30.29,ENE,66,0.0,0.0,74,0.00,,---,0.00,VWS V14.01,2013-04-10 04:00:00,
2013-04-09 21:05:00,55.3,47.2,30.29,ENE,67,0.0,0.0,74,0.00,,---,0.00,VWS V14.01,2013-04-10 04:05:00,
2013-04-09 21:10:00,55.3,47.2,30.29,ENE,67,0.0,0.0,74,0.00,,---,0.00,VWS V14.01,2013-04-10 04:10:00,
2013-04-09 21:15:00,55.1,47.0,30.29,ENE,67,0.0,0.0,74,0.00,,---,0.00,VWS V14.01,2013-04-10 04:15:00,
2013-04-09 21:20:00,55.1,47.3,30.29,ENE,67,0.0,0.0,75,0.00,,---,0.00,VWS V14.01,2013-04-10 04:20:00,
2013-04-09 21:25:00,55.0,47.2,30.30,ENE,66,0.0,0.0,75,0.00,,---,0.00,VWS V14.01,2013-04-10 04:25:00,
2013-04-09 21:30:00,55.0,47.2,30.30,ENE,67,0.0,0.0,75,0.00,,---,0.00,VWS V14.01,2013-04-10 04:30:00,
2013-04-09 21:35:00,55.0,48.3,30.30,West,271,0.0,0.0,78,0.00,,---,0.00,VWS V14.01,2013-04-10 04:35:00,
2013-04-09 21:40:00,54.9,48.5,30.30,West,271,0.0,0.0,79,0.00,,---,0.00,VWS V14.01,2013-04-10 04:40:00,
2013-04-09 21:45:00,54.8,48.4,30.30,West,271,0.0,0.0,79,0.00,,---,0.00,VWS V14.01,2013-04-10 04:45:00,
2013-04-09 21:50:00,54.7,48.3,30.30,West,271,0.0,0.0,79,0.00,,---,0.00,VWS V14.01,2013-04-10 04:50:00,
2013-04-09 21:55:00,54.6,48.2,30.30,West,271,0.0,0.0,79,0.00,,---,0.00,VWS V14.01,2013-04-10 04:55:00,
2013-04-09 22:00:00,54.5,48.1,30.30,West,271,0.0,0.0,79,0.00,,---,0.00,VWS V14.01,2013-04-10 05:00:00,
2013-04-09 22:05:00,54.5,48.5,30.30,West,271,0.0,0.0,80,0.00,,---,0.00,VWS V14.01,2013-04-10 05:05:00,
2013-04-09 22:10:00,54.4,48.0,30.30,West,273,0.0,1.0,79,0.00,,---,0.00,VWS V14.01,2013-04-10 05:10:00,
2013-04-09 22:15:00,54.3,47.9,30.30,West,273,0.0,1.0,79,0.00,,---,0.00,VWS V14.01,2013-04-10 05:15:00,
2013-04-09 22:20:00,54.3,47.9,30.30,West,273,0.0,1.0,79,0.00,,---,0.00,VWS V14.01,2013-04-10 05:20:00,
2013-04-09 22:25:00,54.2,48.2,30.30,West,273,0.0,1.0,80,0.00,,---,0.00,VWS V14.01,2013-04-10 05:25:00,
2013-04-09 22:30:00,54.2,48.2,30.29,West,273,0.0,1.0,80,0.00,,---,0.00,VWS V14.01,2013-04-10 05:30:00,
2013-04-09 22:35:00,54.0,48.0,30.29,West,273,0.0,0.0,80,0.00,,---,0.00,VWS V14.01,2013-04-10 05:35:00,
2013-04-09 22:40:00,53.9,48.2,30.28,West,272,0.0,0.0,81,0.00,,---,0.00,VWS V14.01,2013-04-10 05:40:00,
2013-04-09 22:45:00,53.8,48.1,30.28,West,273,0.0,0.0,81,0.00,,---,0.00,VWS V14.01,2013-04-10 05:45:00,
2013-04-09 22:50:00,53.8,48.4,30.27,West,273,0.0,0.0,82,0.00,,---,0.00,VWS V14.01,2013-04-10 05:50:00,
2013-04-09 22:55:00,53.7,48.3,30.27,West,273,0.0,0.0,82,0.00,,---,0.00,VWS V14.01,2013-04-10 05:55:00,
2013-04-09 23:00:00,53.6,47.9,30.27,West,273,0.0,0.0,81,0.00,,---,0.00,VWS V14.01,2013-04-10 06:00:00,
2013-04-09 23:05:00,53.6,48.2,30.27,West,273,0.0,0.0,82,0.00,,---,0.00,VWS V14.01,2013-04-10 06:05:00,
2013-04-09 23:10:00,53.6,47.9,30.27,West,272,0.0,0.0,81,0.00,,---,0.00,VWS V14.01,2013-04-10 06:10:00,
2013-04-09 23:15:00,53.5,48.2,30.27,West,273,0.0,0.0,82,0.00,,---,0.00,VWS V14.01,2013-04-10 06:15:00,
2013-04-09 23:20:00,53.5,48.2,30.26,West,273,0.0,0.0,82,0.00,,---,0.00,VWS V14.01,2013-04-10 06:20:00,
2013-04-09 23:25:00,53.4,48.0,30.26,West,272,0.0,0.0,82,0.00,,---,0.00,VWS V14.01,2013-04-10 06:25:00,
2013-04-09 23:30:00,53.4,48.0,30.27,West,273,0.0,0.0,82,0.00,,---,0.00,VWS V14.01,2013-04-10 06:30:00,
2013-04-09 23:35:00,53.3,48.0,30.26,West,272,0.0,0.0,82,0.00,,---,0.00,VWS V14.01,2013-04-10 06:35:00,
2013-04-09 23:40:00,53.3,48.0,30.26,West,273,0.0,0.0,82,0.00,,---,0.00,VWS V14.01,2013-04-10 06:40:00,
2013-04-09 23:45:00,53.3,48.3,30.26,West,273,0.0,0.0,83,0.00,,---,0.00,VWS V14.01,2013-04-10 06:45:00,
2013-04-09 23:50:00,53.3,48.0,30.26,West,273,0.0,0.0,82,0.00,,---,0.00,VWS V14.01,2013-04-10 06:50:00,
2013-04-09 23:55:00,53.3,48.0,30.26,West,273,0.0,0.0,82,0.00,,---,0.00,VWS V14.01,2013-04-10 06:55:00,